createdAt,value
2024-03-04T00:00:51.953Z,53.63
2024-03-04T00:03:20.097Z,55.57
2024-03-04T00:05:48.229Z,52.07
2024-03-04T00:08:16.420Z,45.50
2024-03-04T00:10:45.869Z,45.27
2024-03-04T00:13:14.059Z,43.00
2024-03-04T00:15:42.268Z,47.03
2024-03-04T00:18:10.311Z,44.10
2024-03-04T00:20:38.360Z,40.03
2024-03-04T00:23:07.135Z,42.60
2024-03-04T00:25:35.248Z,40.40
2024-03-04T00:28:05.231Z,35.07
2024-03-04T00:30:33.336Z,44.77
2024-03-04T00:33:01.348Z,41.00
2024-03-04T00:35:29.588Z,36.43
2024-03-04T00:37:57.752Z,50.33
2024-03-04T00:40:25.881Z,34.60
2024-03-04T00:42:54.355Z,38.57
2024-03-04T00:45:23.769Z,31.90
2024-03-04T00:47:51.853Z,31.40
2024-03-04T00:50:20.094Z,36.53
2024-03-04T00:52:48.116Z,38.43
2024-03-04T00:55:18.695Z,36.40
2024-03-04T00:57:46.976Z,32.87
2024-03-04T01:00:16.313Z,35.70
2024-03-04T01:02:45.925Z,30.80
2024-03-04T01:05:14.095Z,38.97
2024-03-04T01:07:42.221Z,33.70
2024-03-04T01:10:10.572Z,31.23
2024-03-04T01:12:38.929Z,32.37
2024-03-04T01:15:09.086Z,36.73
2024-03-04T01:17:37.475Z,31.47
2024-03-04T01:20:11.395Z,39.50
2024-03-04T01:22:40.699Z,33.57
2024-03-04T01:25:10.192Z,24.73
2024-03-04T01:27:38.262Z,31.00
2024-03-04T01:30:10.484Z,28.10
2024-03-04T01:32:38.792Z,24.17
2024-03-04T01:35:12.012Z,26.23
2024-03-04T01:37:41.669Z,25.40
2024-03-04T01:40:11.674Z,25.67
2024-03-04T01:42:39.663Z,20.10
2024-03-04T01:45:17.554Z,22.33
2024-03-04T01:47:45.749Z,28.63
2024-03-04T01:50:15.224Z,19.20
2024-03-04T01:52:43.263Z,21.10
2024-03-04T01:55:11.597Z,15.97
2024-03-04T01:57:40.296Z,18.87
2024-03-04T02:00:12.537Z,18.40
2024-03-04T02:02:42.531Z,17.00
2024-03-04T02:05:12.054Z,15.70
2024-03-04T02:07:42.919Z,15.60
2024-03-04T02:10:12.070Z,15.17
2024-03-04T02:12:40.348Z,15.03
2024-03-04T02:15:09.829Z,17.90
2024-03-04T02:17:38.030Z,13.83
2024-03-04T02:20:11.058Z,13.23
2024-03-04T02:22:41.048Z,16.13
2024-03-04T02:25:12.751Z,16.30
2024-03-04T02:27:40.956Z,15.50
2024-03-04T02:30:11.069Z,17.87
2024-03-04T02:32:40.703Z,14.00
2024-03-04T02:35:09.806Z,15.57
2024-03-04T02:37:38.733Z,14.27
2024-03-04T02:40:09.849Z,13.10
2024-03-04T02:42:38.021Z,12.93
2024-03-04T02:45:07.217Z,15.23
2024-03-04T02:47:35.225Z,12.67
2024-03-04T02:50:04.313Z,19.37
2024-03-04T02:52:32.622Z,9.50
2024-03-04T02:55:00.692Z,10.63
2024-03-04T02:57:30.601Z,9.50
2024-03-04T02:59:58.716Z,9.10
2024-03-04T03:02:26.751Z,11.47
2024-03-04T03:04:54.795Z,11.77
2024-03-04T03:07:22.821Z,9.07
2024-03-04T03:09:50.886Z,8.03
2024-03-04T03:12:19.210Z,13.90
2024-03-04T03:14:48.523Z,8.27
2024-03-04T03:17:16.996Z,14.57
2024-03-04T03:19:45.362Z,12.00
2024-03-04T03:22:13.502Z,14.13
2024-03-04T03:24:42.864Z,12.73
2024-03-04T03:27:12.382Z,9.73
2024-03-04T03:29:40.579Z,12.10
2024-03-04T03:32:09.959Z,12.90
2024-03-04T03:34:38.141Z,10.43
2024-03-04T03:37:06.489Z,12.90
2024-03-04T03:39:34.972Z,10.70
2024-03-04T03:42:05.806Z,12.63
2024-03-04T03:44:33.809Z,11.23
2024-03-04T03:47:03.066Z,12.93
2024-03-04T03:49:32.995Z,9.67
2024-03-04T03:52:01.152Z,10.53
2024-03-04T03:54:29.398Z,11.73
2024-03-04T03:56:57.358Z,13.03
2024-03-04T03:59:25.337Z,8.97
2024-03-04T04:01:54.374Z,7.00
2024-03-04T04:04:26.287Z,12.47
2024-03-04T04:06:55.806Z,8.50
2024-03-04T04:09:23.835Z,9.80
2024-03-04T04:11:51.861Z,9.80
2024-03-04T04:14:19.880Z,9.30
2024-03-04T04:16:47.919Z,14.50
2024-03-04T04:19:17.695Z,12.60
2024-03-04T04:21:45.778Z,12.90
2024-03-04T04:24:15.637Z,9.60
2024-03-04T04:26:43.719Z,10.20
2024-03-04T04:29:11.732Z,9.87
2024-03-04T04:31:40.278Z,13.20
2024-03-04T04:34:08.716Z,13.67
2024-03-04T04:36:37.067Z,11.00
2024-03-04T04:39:05.323Z,12.40
2024-03-04T04:41:36.252Z,14.83
2024-03-04T04:44:04.581Z,13.60
2024-03-04T04:46:32.701Z,13.37
2024-03-04T04:49:00.830Z,11.53
2024-03-04T04:51:28.866Z,10.47
2024-03-04T04:53:56.911Z,12.03
2024-03-04T04:56:25.052Z,19.57
2024-03-04T04:58:54.425Z,10.87
2024-03-04T05:01:29.336Z,16.70
2024-03-04T05:06:29.040Z,10.03
2024-03-04T05:08:57.011Z,12.70
2024-03-04T05:11:26.429Z,11.83
2024-03-04T05:13:55.836Z,11.43
2024-03-04T05:16:23.893Z,13.37
2024-03-04T05:18:51.950Z,11.93
2024-03-04T05:21:20.012Z,18.30
2024-03-04T05:23:48.663Z,8.77
2024-03-04T05:26:16.726Z,13.77
2024-03-04T05:28:45.888Z,16.60
2024-03-04T05:31:15.309Z,24.97
2024-03-04T05:33:43.620Z,12.00
2024-03-04T05:36:10.896Z,13.10
2024-03-04T05:38:39.006Z,10.50
2024-03-04T05:41:07.053Z,15.23
2024-03-04T05:43:35.219Z,10.80
2024-03-04T05:46:04.514Z,11.87
2024-03-04T05:48:34.355Z,11.73
2024-03-04T05:51:04.396Z,11.03
2024-03-04T05:53:32.605Z,14.03
2024-03-04T05:56:00.889Z,13.40
2024-03-04T05:58:28.969Z,12.63
2024-03-04T06:00:58.152Z,10.97
2024-03-04T06:03:26.397Z,13.83
2024-03-04T06:05:55.760Z,12.80
2024-03-04T06:08:23.787Z,13.57
2024-03-04T06:10:51.936Z,12.33
2024-03-04T06:13:20.047Z,14.50
2024-03-04T06:15:48.136Z,17.93
2024-03-04T06:18:16.163Z,17.20
2024-03-04T06:20:45.396Z,14.33
2024-03-04T06:23:14.861Z,18.40
2024-03-04T06:25:43.155Z,9.17
2024-03-04T06:28:11.222Z,16.57
2024-03-04T06:30:39.245Z,12.60
2024-03-04T06:33:07.300Z,17.23
2024-03-04T06:35:35.362Z,16.83
2024-03-04T06:38:03.483Z,14.57
2024-03-04T06:40:32.928Z,14.90
2024-03-04T06:43:00.956Z,12.37
2024-03-04T06:45:29.028Z,20.97
2024-03-04T06:48:01.294Z,13.33
2024-03-04T06:50:29.600Z,16.17
2024-03-04T06:52:57.931Z,19.03
2024-03-04T06:55:25.945Z,14.77
2024-03-04T06:57:55.297Z,9.63
2024-03-04T07:00:23.552Z,15.77
2024-03-04T07:02:51.530Z,13.27
2024-03-04T07:05:19.700Z,16.30
2024-03-04T07:07:47.822Z,11.80
2024-03-04T07:10:15.941Z,14.57
2024-03-04T07:12:44.172Z,10.97
2024-03-04T07:15:13.904Z,10.63
2024-03-04T07:17:42.049Z,12.80
2024-03-04T07:20:10.692Z,17.03
2024-03-04T07:22:39.211Z,10.80
2024-03-04T07:25:08.329Z,10.97
2024-03-04T07:27:36.437Z,12.50
2024-03-04T07:30:04.884Z,7.90
2024-03-04T07:32:34.346Z,5.80
2024-03-04T07:35:02.412Z,7.37
2024-03-04T07:37:30.469Z,8.00
2024-03-04T07:39:58.609Z,7.67
2024-03-04T07:42:26.797Z,6.50
2024-03-04T07:44:54.870Z,11.83
2024-03-04T07:47:23.006Z,7.60
2024-03-04T07:49:52.408Z,8.20
2024-03-04T07:52:20.687Z,5.80
2024-03-04T07:54:48.787Z,6.67
2024-03-04T07:57:20.581Z,7.90
2024-03-04T07:59:52.049Z,8.53
2024-03-04T08:02:20.045Z,7.47
2024-03-04T08:04:48.266Z,7.30
2024-03-04T08:07:17.813Z,8.77
2024-03-04T08:09:45.907Z,9.93
2024-03-04T08:12:14.803Z,8.27
2024-03-04T08:14:42.778Z,12.93
2024-03-04T08:17:11.958Z,9.90
2024-03-04T08:19:40.136Z,9.80
2024-03-04T08:22:08.206Z,11.50
2024-03-04T08:24:37.596Z,7.90
2024-03-04T08:27:06.307Z,14.20
2024-03-04T08:29:35.233Z,8.00
2024-03-04T08:32:05.347Z,11.17
2024-03-04T08:34:33.992Z,11.50
2024-03-04T08:37:02.531Z,14.67
2024-03-04T08:39:30.734Z,10.40
2024-03-04T08:42:00.155Z,9.00
2024-03-04T08:44:31.338Z,9.20
2024-03-04T08:46:59.451Z,10.57
2024-03-04T08:49:27.502Z,12.00
2024-03-04T08:51:57.360Z,12.20
2024-03-04T08:54:27.107Z,11.67
2024-03-04T08:56:55.066Z,10.87
2024-03-04T08:59:24.562Z,12.70
2024-03-04T09:01:53.719Z,13.37
2024-03-04T09:04:22.189Z,10.33
2024-03-04T09:06:50.553Z,11.40
2024-03-04T09:09:18.696Z,8.60
2024-03-04T09:11:46.773Z,9.50
2024-03-04T09:14:14.807Z,15.90
2024-03-04T09:16:44.239Z,9.10
2024-03-04T09:19:12.781Z,13.23
2024-03-04T09:21:40.923Z,9.17
2024-03-04T09:24:08.968Z,12.97
2024-03-04T09:26:37.561Z,8.27
2024-03-04T09:29:05.740Z,13.87
2024-03-04T09:31:35.292Z,9.00
2024-03-04T09:34:05.822Z,14.77
2024-03-04T09:36:33.947Z,6.60
2024-03-04T09:39:02.985Z,12.00
2024-03-04T09:41:32.050Z,11.57
2024-03-04T09:44:00.180Z,12.30
2024-03-04T09:46:29.212Z,9.80
2024-03-04T09:48:57.815Z,9.30
2024-03-04T09:51:29.606Z,9.10
2024-03-04T09:53:59.088Z,11.17
2024-03-04T09:56:27.894Z,7.67
2024-03-04T09:58:57.343Z,8.20
2024-03-04T10:01:26.509Z,6.20
2024-03-04T10:03:56.254Z,7.80
2024-03-04T10:06:24.265Z,9.30
2024-03-04T10:08:57.410Z,5.67
2024-03-04T10:11:25.815Z,7.83
2024-03-04T10:13:56.551Z,9.70
2024-03-04T10:16:25.081Z,13.70
2024-03-04T10:19:02.541Z,15.83
2024-03-04T10:21:31.679Z,13.90
2024-03-04T10:24:01.589Z,13.77
2024-03-04T10:26:41.925Z,9.33
2024-03-04T10:29:10.040Z,6.93
2024-03-04T10:31:41.982Z,13.60
2024-03-04T10:34:10.193Z,7.47
2024-03-04T10:36:38.185Z,9.97
2024-03-04T10:39:15.023Z,7.10
2024-03-04T10:41:45.912Z,6.70
2024-03-04T10:44:26.127Z,6.10
2024-03-04T10:46:58.940Z,5.90
2024-03-04T10:49:31.016Z,8.10
2024-03-04T10:52:08.596Z,6.60
2024-03-04T10:54:43.391Z,5.53
2024-03-04T10:57:28.664Z,8.40
2024-03-04T10:59:58.925Z,4.87
2024-03-04T11:02:37.703Z,8.47
2024-03-04T11:05:09.317Z,7.10
2024-03-04T11:07:43.653Z,10.77
2024-03-04T11:10:22.041Z,6.37
2024-03-04T11:13:04.146Z,7.63
2024-03-04T11:15:39.111Z,7.80
2024-03-04T11:18:14.829Z,12.90
2024-03-04T11:20:47.425Z,10.00
2024-03-04T11:23:17.136Z,7.33
2024-03-04T11:25:46.918Z,9.40
2024-03-04T11:28:20.202Z,7.67
2024-03-04T11:30:51.435Z,6.90
2024-03-04T11:33:39.384Z,6.13
2024-03-04T11:36:08.985Z,8.30
2024-03-04T11:38:48.114Z,6.40
2024-03-04T11:41:41.502Z,8.00
2024-03-04T11:44:09.971Z,5.70
2024-03-04T11:46:42.976Z,7.83
2024-03-04T11:49:25.113Z,9.40
2024-03-04T11:52:03.898Z,9.50
2024-03-04T11:54:45.478Z,5.60
2024-03-04T11:57:16.779Z,6.23
2024-03-04T11:59:59.180Z,5.30
2024-03-04T12:02:27.320Z,4.97
2024-03-04T12:04:59.532Z,3.47
2024-03-04T12:07:28.085Z,5.73
2024-03-04T12:10:05.604Z,8.00
2024-03-04T12:12:44.421Z,3.80
2024-03-04T12:15:12.824Z,3.70
2024-03-04T12:17:41.578Z,4.50
2024-03-04T12:20:11.374Z,7.13
2024-03-04T12:22:39.994Z,5.23
2024-03-04T12:25:09.859Z,3.50
2024-03-04T12:27:40.754Z,9.63
2024-03-04T12:30:15.087Z,5.83
2024-03-04T12:32:44.486Z,5.13
2024-03-04T12:35:20.882Z,3.23
2024-03-04T12:37:50.615Z,3.57
2024-03-04T12:40:20.085Z,2.97
2024-03-04T12:42:54.273Z,2.17
2024-03-04T12:45:26.700Z,3.83
2024-03-04T12:47:56.972Z,2.40
2024-03-04T12:50:25.789Z,3.33
2024-03-04T12:52:54.410Z,4.50
2024-03-04T12:55:22.649Z,2.20
2024-03-04T12:57:51.122Z,2.30
2024-03-04T13:00:19.548Z,5.13
2024-03-04T13:02:49.760Z,3.47
2024-03-04T13:05:18.521Z,4.57
2024-03-04T13:07:47.795Z,3.30
2024-03-04T13:10:16.853Z,2.50
2024-03-04T13:12:48.585Z,3.40
2024-03-04T13:15:17.201Z,2.40
2024-03-04T13:17:45.804Z,3.73
2024-03-04T13:20:15.938Z,3.40
2024-03-04T13:22:45.725Z,2.53
2024-03-04T13:25:14.082Z,4.03
2024-03-04T13:27:42.514Z,12.13
2024-03-04T13:30:12.401Z,2.97
2024-03-04T13:32:41.055Z,2.70
2024-03-04T13:35:10.528Z,2.50
2024-03-04T13:37:40.937Z,2.90
2024-03-04T13:40:11.630Z,6.37
2024-03-04T13:42:39.929Z,1.97
2024-03-04T13:45:08.800Z,1.50
2024-03-04T13:47:37.520Z,2.27
2024-03-04T13:50:06.113Z,2.50
2024-03-04T13:52:34.214Z,2.60
2024-03-04T13:55:03.910Z,5.03
2024-03-04T13:57:32.007Z,1.77
2024-03-04T13:59:59.985Z,2.37
2024-03-04T14:02:28.368Z,3.80
2024-03-04T14:04:56.465Z,2.20
2024-03-04T14:07:24.541Z,2.50
2024-03-04T14:09:53.113Z,2.47
2024-03-04T14:12:22.470Z,2.70
2024-03-04T14:14:50.460Z,2.23
2024-03-04T14:17:18.489Z,2.13
2024-03-04T14:19:46.590Z,3.30
2024-03-04T14:22:14.735Z,2.30
2024-03-04T14:24:42.744Z,4.80
2024-03-04T14:27:10.910Z,3.80
2024-03-04T14:29:43.590Z,3.43
2024-03-04T14:32:11.718Z,2.40
2024-03-04T14:34:39.962Z,2.10
2024-03-04T14:37:08.117Z,2.30
2024-03-04T14:39:36.137Z,3.00
2024-03-04T14:42:04.859Z,2.97
2024-03-04T14:44:32.961Z,2.40
2024-03-04T14:47:02.418Z,2.63
2024-03-04T14:49:30.855Z,3.07
2024-03-04T14:51:58.973Z,5.10
2024-03-04T14:54:27.019Z,2.50
2024-03-04T14:56:55.049Z,1.90
2024-03-04T14:59:23.189Z,4.13
2024-03-04T15:01:51.302Z,5.10
2024-03-04T15:04:20.926Z,3.60
2024-03-04T15:06:49.870Z,2.57
2024-03-04T15:09:17.909Z,2.63
2024-03-04T15:11:46.051Z,4.70
2024-03-04T15:14:14.048Z,2.87
2024-03-04T15:16:49.547Z,3.13
2024-03-04T15:19:17.827Z,3.37
2024-03-04T15:21:49.652Z,4.47
2024-03-04T15:24:17.642Z,3.83
2024-03-04T15:26:45.707Z,5.30
2024-03-04T15:29:15.703Z,5.40
2024-03-04T15:31:45.984Z,2.57
2024-03-04T15:34:15.945Z,2.73
2024-03-04T15:36:50.280Z,2.73
2024-03-04T15:39:20.567Z,8.23
2024-03-04T15:41:48.628Z,3.67
2024-03-04T15:44:16.959Z,3.17
2024-03-04T15:46:47.377Z,2.97
2024-03-04T15:49:16.527Z,3.60
2024-03-04T15:51:46.899Z,10.47
2024-03-04T15:54:15.037Z,3.43
2024-03-04T15:56:45.103Z,7.63
2024-03-04T15:59:13.687Z,3.90
2024-03-04T16:01:41.888Z,3.93
2024-03-04T16:04:10.137Z,4.50
2024-03-04T16:06:39.650Z,7.13
2024-03-04T16:09:09.489Z,4.33
2024-03-04T16:11:38.117Z,7.50
2024-03-04T16:14:07.867Z,4.23
2024-03-04T16:16:35.954Z,5.10
2024-03-04T16:19:04.950Z,6.10
2024-03-04T16:21:34.508Z,6.60
2024-03-04T16:24:02.864Z,4.37
2024-03-04T16:26:31.805Z,3.83
2024-03-04T16:29:00.828Z,3.57
2024-03-04T16:31:34.456Z,6.40
2024-03-04T16:34:03.432Z,3.33
2024-03-04T16:36:31.426Z,4.83
2024-03-04T16:38:59.424Z,3.53
2024-03-04T16:41:27.475Z,7.27
2024-03-04T16:43:55.556Z,3.50
2024-03-04T16:46:24.899Z,3.60
2024-03-04T16:48:54.881Z,3.70
2024-03-04T16:51:23.625Z,6.23
2024-03-04T16:53:51.620Z,5.17
2024-03-04T16:56:19.750Z,7.80
2024-03-04T16:58:47.838Z,7.87
2024-03-04T17:01:17.048Z,5.87
2024-03-04T17:03:45.183Z,8.57
2024-03-04T17:06:14.556Z,11.87
2024-03-04T17:08:42.613Z,9.10
2024-03-04T17:11:10.720Z,9.50
2024-03-04T17:13:38.935Z,10.87
2024-03-04T17:16:07.197Z,10.10
2024-03-04T17:18:35.346Z,15.30
2024-03-04T17:21:03.442Z,14.23
2024-03-04T17:23:33.687Z,8.00
2024-03-04T17:26:01.724Z,7.40
2024-03-04T17:28:29.799Z,7.10
2024-03-04T17:30:57.979Z,5.90
2024-03-04T17:33:27.258Z,6.97
2024-03-04T17:35:55.302Z,6.93
2024-03-04T17:38:23.292Z,9.07
2024-03-04T17:40:52.812Z,4.83
2024-03-04T17:43:21.110Z,7.43
2024-03-04T17:45:49.809Z,6.40
2024-03-04T17:48:18.100Z,8.97
2024-03-04T17:50:46.098Z,4.83
2024-03-04T17:53:15.183Z,7.07
2024-03-04T17:55:43.765Z,5.80
2024-03-04T17:58:16.963Z,5.23
2024-03-04T18:00:46.186Z,10.30
2024-03-04T18:03:14.347Z,9.57
2024-03-04T18:05:42.572Z,5.10
2024-03-04T18:08:10.589Z,7.77
2024-03-04T18:10:38.683Z,14.10
2024-03-04T18:13:07.405Z,9.13
2024-03-04T18:15:36.947Z,5.93
2024-03-04T18:18:05.541Z,9.23
2024-03-04T18:20:35.548Z,8.30
2024-03-04T18:23:03.616Z,6.87
2024-03-04T18:25:31.711Z,8.60
2024-03-04T18:27:59.750Z,6.00
2024-03-04T18:30:27.813Z,10.33
2024-03-04T18:32:57.409Z,9.47
2024-03-04T18:35:25.488Z,8.90
2024-03-04T18:37:53.544Z,10.30
2024-03-04T18:40:21.650Z,10.87
2024-03-04T18:42:50.990Z,10.40
2024-03-04T18:45:21.169Z,10.00
2024-03-04T18:47:49.269Z,11.03
2024-03-04T18:50:23.564Z,9.93
2024-03-04T18:52:53.946Z,11.07
2024-03-04T18:55:22.095Z,11.53
2024-03-04T18:57:50.140Z,13.90
2024-03-04T19:00:18.544Z,10.17
2024-03-04T19:02:46.615Z,12.97
2024-03-04T19:05:15.417Z,16.87
2024-03-04T19:07:44.855Z,11.83
2024-03-04T19:10:12.991Z,14.17
2024-03-04T19:12:41.725Z,17.90
2024-03-04T19:15:11.125Z,13.67
2024-03-04T19:17:41.051Z,15.07
2024-03-04T19:20:12.903Z,16.60
2024-03-04T19:22:41.124Z,19.17
2024-03-04T19:25:11.808Z,19.57
2024-03-04T19:27:40.071Z,24.37
2024-03-04T19:30:10.759Z,27.80
2024-03-04T19:32:40.997Z,27.30
2024-03-04T19:35:10.705Z,28.40
2024-03-04T19:37:38.744Z,31.10
2024-03-04T19:40:11.971Z,30.33
2024-03-04T19:42:41.523Z,34.03
2024-03-04T19:45:10.274Z,33.20
2024-03-04T19:47:38.338Z,32.77
2024-03-04T19:50:07.149Z,39.17
2024-03-04T19:52:35.318Z,32.13
2024-03-04T19:55:03.825Z,37.50
2024-03-04T19:57:36.436Z,37.03
2024-03-04T20:00:11.799Z,37.63
2024-03-04T20:02:39.891Z,36.50
2024-03-04T20:05:09.006Z,36.00
2024-03-04T20:07:37.549Z,41.20
2024-03-04T20:10:07.456Z,39.30
2024-03-04T20:12:35.665Z,39.77
2024-03-04T20:15:03.806Z,43.43
2024-03-04T20:17:33.515Z,39.90
2024-03-04T20:20:01.546Z,37.50
2024-03-04T20:22:29.729Z,45.30
2024-03-04T20:24:57.753Z,42.03
2024-03-04T20:27:25.805Z,43.00
2024-03-04T20:29:53.946Z,39.20
2024-03-04T20:32:21.978Z,45.30
2024-03-04T20:34:51.394Z,48.87
2024-03-04T20:37:19.462Z,38.97
2024-03-04T20:39:47.483Z,44.13
2024-03-04T20:42:15.597Z,41.73
2024-03-04T20:44:43.608Z,50.90
2024-03-04T20:47:11.642Z,43.77
2024-03-04T20:49:39.719Z,42.03
2024-03-04T20:52:09.366Z,47.97
2024-03-04T20:54:39.492Z,41.27
2024-03-04T20:57:07.857Z,49.40
2024-03-04T20:59:35.992Z,48.70
2024-03-04T21:02:04.048Z,46.60
2024-03-04T21:04:32.113Z,47.27
2024-03-04T21:07:00.148Z,48.17
2024-03-04T21:09:29.516Z,48.23
2024-03-04T21:11:57.551Z,45.47
2024-03-04T21:14:25.628Z,48.17
2024-03-04T21:16:54.258Z,54.17
2024-03-04T21:19:22.382Z,49.10
2024-03-04T21:21:50.471Z,48.50
2024-03-04T21:24:18.502Z,50.73
2024-03-04T21:26:48.003Z,48.03
2024-03-04T21:29:16.023Z,57.50
2024-03-04T21:31:44.036Z,53.03
2024-03-04T21:34:12.208Z,50.17
2024-03-04T21:36:40.189Z,58.17
2024-03-04T21:39:08.235Z,54.80
2024-03-04T21:41:36.225Z,57.53
2024-03-04T21:44:07.600Z,61.40
2024-03-04T21:46:35.706Z,57.83
2024-03-04T21:49:03.836Z,66.53
2024-03-04T21:51:31.866Z,59.03
2024-03-04T21:53:59.987Z,60.33
2024-03-04T21:56:28.016Z,58.13
2024-03-04T21:58:56.132Z,70.17
2024-03-04T22:01:25.708Z,67.93
2024-03-04T22:03:53.729Z,65.70
2024-03-04T22:06:22.327Z,54.97
2024-03-04T22:08:51.081Z,62.40
2024-03-04T22:11:19.314Z,58.53
2024-03-04T22:13:47.636Z,62.40
2024-03-04T22:16:15.808Z,65.30
2024-03-04T22:18:45.585Z,56.60
2024-03-04T22:21:13.703Z,63.37
2024-03-04T22:23:41.707Z,61.40
2024-03-04T22:26:10.018Z,55.60
2024-03-04T22:28:38.180Z,61.40
2024-03-04T22:31:07.771Z,59.60
2024-03-04T22:33:35.736Z,59.87
2024-03-04T22:36:06.043Z,54.43
2024-03-04T22:38:34.066Z,60.47
2024-03-04T22:41:03.255Z,58.77
2024-03-04T22:43:31.400Z,60.63
2024-03-04T22:45:59.418Z,57.27
2024-03-04T22:48:27.557Z,63.60
2024-03-04T22:50:55.576Z,57.50
2024-03-04T22:53:26.871Z,58.87
2024-03-04T22:55:54.973Z,61.10
2024-03-04T22:58:23.158Z,58.20
2024-03-04T23:00:57.523Z,61.97
2024-03-04T23:03:26.900Z,65.47
2024-03-04T23:05:55.184Z,64.70
2024-03-04T23:08:24.469Z,56.87
2024-03-04T23:10:54.000Z,58.47
2024-03-04T23:13:22.177Z,54.07
2024-03-04T23:15:51.164Z,51.77
2024-03-04T23:18:19.195Z,66.83
2024-03-04T23:20:48.595Z,54.70
2024-03-04T23:23:16.589Z,57.67
2024-03-04T23:25:44.657Z,55.20
2024-03-04T23:28:14.259Z,57.27
2024-03-04T23:30:43.351Z,56.60
2024-03-04T23:33:11.461Z,58.70
2024-03-04T23:35:39.479Z,58.20
2024-03-04T23:38:07.519Z,57.70
2024-03-04T23:40:35.534Z,53.10
2024-03-04T23:43:03.550Z,58.00
2024-03-04T23:45:32.888Z,61.87
2024-03-04T23:48:01.132Z,54.30
2024-03-04T23:50:29.221Z,59.77
2024-03-04T23:52:57.264Z,57.87
2024-03-04T23:55:26.198Z,64.43
2024-03-04T23:57:54.225Z,60.53
